Home > Products > Valid Products > MTR

000
SAUS46 KSGX 300053
MTRCZZ
METAR KCZZ 300052Z AUTO 23011KT 16/09 A2990 RMK AO1 SLP110 T01610089





000
SAUS46 KSGX 300053
MTRCZZ
METAR KCZZ 300052Z AUTO 23011KT 16/09 A2990 RMK AO1 SLP110 T01610089





000
SAUS46 KSGX 292353
MTRCZZ
METAR KCZZ 292352Z AUTO 23012G19KT 19/08 A2990 RMK AO1 SLP108
T01890083 10206 20139 56013





000
SAUS46 KSGX 292253
MTRCZZ
METAR KCZZ 292252Z AUTO 26011G20KT 20/06 A2991 RMK AO1 SLP108
T02000061





000
SAUS46 KSGX 292153
MTRCZZ
METAR KCZZ 292152Z AUTO 27008G17KT 20/06 A2993 RMK AO1 SLP116
T02000061





000
SAUS46 KSGX 292053
MTRCZZ
METAR KCZZ 292052Z AUTO 21014G22KT 19/06 A2994 RMK AO1 SLP120
T01890061 58015





000
SAUS46 KSGX 292053
MTRCZZ
METAR KCZZ 292052Z AUTO 21014G22KT 19/06 A2994 RMK AO1 SLP120
T01890061 58015





000
SAUS46 KSGX 291953
MTRCZZ
METAR KCZZ 291952Z AUTO 21011KT 18/07 A2996 RMK AO1 SLP125 T01780067





000
SAUS46 KSGX 291853
MTRCZZ
METAR KCZZ 291852Z AUTO 21012KT 16/07 A2998 RMK AO1 SLP133 T01560072





000
SAUS46 KSGX 291753
MTRCZZ
METAR KCZZ 291752Z AUTO 21010KT 14/07 A2999 RMK AO1 SLP139 T01390067
10139 20044 50003





000
SAUS46 KSGX 291653
MTRCZZ
METAR KCZZ 291652Z AUTO 21008KT 11/07 A3000 RMK AO1 SLP145 T01110067





000
SAUS46 KSGX 291553
MTRCZZ
METAR KCZZ 291552Z AUTO 19005KT 09/06 A2999 RMK AO1 SLP144 T00890056





000
SAUS46 KSGX 291453
MTRCZZ
METAR KCZZ 291452Z AUTO 19004KT 08/06 A2998 RMK AO1 SLP141 T00780056
53015





000
SAUS46 KSGX 291453
MTRCZZ
METAR KCZZ 291452Z AUTO 19004KT 08/06 A2998 RMK AO1 SLP141 T00780056
53015





000
SAUS46 KSGX 291353
MTRCZZ
METAR KCZZ 291352Z AUTO 00000KT 06/05 A2995 RMK AO1 SLP130 T00610050





000
SAUS46 KSGX 291253
MTRCZZ
METAR KCZZ 291252Z AUTO 00000KT 05/04 A2994 RMK AO1 SLP129 T00500044





000
SAUS46 KSGX 291153
MTRCZZ
METAR KCZZ 291152Z AUTO 00000KT 04/04 A2993 RMK AO1 SLP125 T00440039
10094 20033 58003





000
SAUS46 KSGX 291053
MTRCZZ
METAR KCZZ 291052Z AUTO 00000KT 06/06 A2994 RMK AO1 SLP126 T00610056





000
SAUS46 KSGX 291053
MTRCZZ
METAR KCZZ 291052Z AUTO 00000KT 06/06 A2994 RMK AO1 SLP126 T00610056





000
SAUS46 KSGX 290953
MTRCZZ
METAR KCZZ 290952Z AUTO 19006KT 07/06 A2994 RMK AO1 SLP125 T00720061





000
SAUS46 KSGX 290853
MTRCZZ
METAR KCZZ 290852Z AUTO 21004KT 08/07 A2994 RMK AO1 SLP128 T00780067
50005





000
SAUS46 KSGX 290853
MTRCZZ
METAR KCZZ 290852Z AUTO 21004KT 08/07 A2994 RMK AO1 SLP128 T00780067
50005





000
SAUS46 KSGX 290753
MTRCZZ
METAR KCZZ 290752Z AUTO 21006KT 08/07 A2995 RMK AO1 SLP131 T00830072
401280061





000
SAUS46 KSGX 290653
MTRCZZ
METAR KCZZ 290652Z AUTO 22009KT 08/07 A2994 RMK AO1 SLP124 T00830072





000
SAUS46 KSGX 290553
MTRCZZ
METAR KCZZ 290552Z AUTO 25007KT 09/06 A2993 RMK AO1 SLP120 T00940061
10122 20094 51017





000
SAUS46 KSGX 290453
MTRCZZ
METAR KCZZ 290452Z AUTO 24009KT 09/07 A2991 RMK AO1 SLP116 T00940067





000
SAUS46 KSGX 290353
MTRCZZ
METAR KCZZ 290352Z AUTO 23009KT 10/07 A2989 RMK AO1 SLP110 T01000067





000
SAUS46 KSGX 290253
MTRCZZ
METAR KCZZ 290252Z AUTO 23010KT 09/07 A2987 RMK AO1 SLP105 T00940067
53008





000
SAUS46 KSGX 290153
MTRCZZ
METAR KCZZ 290152Z AUTO 23015KT 11/06 A2986 RMK AO1 SLP098 T01110061





000
SAUS46 KSGX 290053
MTRCZZ
METAR KCZZ 290052Z AUTO 25008KT 12/06 A2985 RMK AO1 SLP096 T01170061





000
SAUS46 KSGX 290053
MTRCZZ
METAR KCZZ 290052Z AUTO 25008KT 12/06 A2985 RMK AO1 SLP096 T01170061





000
SAUS46 KSGX 282353
MTRCZZ
METAR KCZZ 282352Z AUTO 25010KT 12/06 A2985 RMK AO1 SLP093 T01170056
10128 20094 55004





000
SAUS46 KSGX 282353
MTRCZZ
METAR KCZZ 282352Z AUTO 25010KT 12/06 A2985 RMK AO1 SLP093 T01170056
10128 20094 55004





000
SAUS46 KSGX 282253
MTRCZZ
METAR KCZZ 282252Z AUTO 25009KT 13/06 A2984 RMK AO1 SLP091 T01280056





000
SAUS46 KSGX 282253
MTRCZZ
METAR KCZZ 282252Z AUTO 25009KT 13/06 A2984 RMK AO1 SLP091 T01280056





000
SAUS46 KSGX 282153
MTRCZZ
METAR KCZZ 282152Z AUTO 23009G16KT 11/06 A2986 RMK AO1 SLP098
T01110061





000
SAUS46 KSGX 282053
MTRCZZ
METAR KCZZ 282052Z AUTO 23013KT 10/05 A2986 RMK AO1 SLP098 T01000050
51008





000
SAUS46 KSGX 281953
MTRCZZ
METAR KCZZ 281952Z AUTO 24012KT 10/04 A2985 RMK AO1 SLP096 T01000039





000
SAUS46 KSGX 281854
MTRCZZ
METAR KCZZ 281852Z AUTO 23011KT 10/04 A2985 RMK AO1 SLP094 T01000039





000
SAUS46 KSGX 281753
MTRCZZ
METAR KCZZ 281752Z AUTO 24015KT 10/04 A2983 RMK AO1 SLP086 T01000039
10106 20061 52004





000
SAUS46 KSGX 281653
MTRCZZ
METAR KCZZ 281652Z AUTO 22015KT 09/04 A2982 RMK AO1 SLP086 T00890044





000
SAUS46 KSGX 281553
MTRCZZ
METAR KCZZ 281552Z AUTO 23014KT 07/05 A2982 RMK AO1 SLP087 T00720050





000
SAUS46 KSGX 281453
MTRCZZ
METAR KCZZ 281452Z AUTO 23009KT 07/05 A2982 RMK AO1 SLP085 T00670050
53015





000
SAUS46 KSGX 281353
MTRCZZ
METAR KCZZ 281352Z AUTO 22011KT 06/05 A2980 RMK AO1 SLP076 T00610050





000
SAUS46 KSGX 281253
MTRCZZ
METAR KCZZ 281252Z AUTO 23013KT 06/04 A2978 RMK AO1 SLP067 T00610044





000
SAUS46 KSGX 281153
MTRCZZ
METAR KCZZ 281152Z AUTO 23015KT 07/04 A2977 RMK AO1 SLP063 T00670039
10094 20061 56006





000
SAUS46 KSGX 281153
MTRCZZ
METAR KCZZ 281152Z AUTO 23015KT 07/04 A2977 RMK AO1 SLP063 T00670039
10094 20061 56006





000
SAUS46 KSGX 281053
MTRCZZ
METAR KCZZ 281052Z AUTO 26009KT 07/03 A2978 RMK AO1 SLP064 T00670033





000
SAUS46 KSGX 280953
MTRCZZ
METAR KCZZ 280952Z AUTO 25009KT 07/03 A2978 RMK AO1 SLP064 T00670028





000
SAUS46 KSGX 280953
MTRCZZ
METAR KCZZ 280952Z AUTO 25009KT 07/03 A2978 RMK AO1 SLP064 T00670028





000
SAUS46 KSGX 280853
MTRCZZ
METAR KCZZ 280852Z AUTO 25011KT 07/04 A2979 RMK AO1 SLP067 T00720044
56002





000
SAUS46 KSGX 280753
MTRCZZ
METAR KCZZ 280752Z AUTO 23010KT 07/05 A2979 RMK AO1 SLP068 T00720050
401891006





000
SAUS46 KSGX 280653
MTRCZZ
METAR KCZZ 280652Z AUTO 24015G22KT 09/06 A2979 RMK AO1 SLP068
T00890056





000
SAUS46 KSGX 280553
MTRCZZ
METAR KCZZ 280552Z AUTO 24017G25KT 09/07 A2980 RMK AO1 PK WND
24026/0537 SLP069 T00940067 10167 20094 50002





000
SAUS46 KSGX 280553
MTRCZZ
METAR KCZZ 280552Z AUTO 24017G25KT 09/07 A2980 RMK AO1 PK WND
24026/0537 SLP069 T00940067 10167 20094 50002





000
SAUS46 KSGX 280453
MTRCZZ
METAR KCZZ 280452Z AUTO 23014KT 10/07 A2980 RMK AO1 SLP074 T01000072





000
SAUS46 KSGX 280353
MTRCZZ
METAR KCZZ 280352Z AUTO 25014KT 11/07 A2980 RMK AO1 SLP073 T01060067





000
SAUS46 KSGX 280353
MTRCZZ
METAR KCZZ 280352Z AUTO 25014KT 11/07 A2980 RMK AO1 SLP073 T01060067





000
SAUS46 KSGX 280253
MTRCZZ
METAR KCZZ 280252Z AUTO 21008KT 10/06 A2979 RMK AO1 SLP075 T01000061
50001





000
SAUS46 KSGX 280153
MTRCZZ
METAR KCZZ 280152Z AUTO 22012KT 12/07 A2980 RMK AO1 SLP079 T01220067





000
SAUS46 KSGX 280053
MTRCZZ
METAR KCZZ 280052Z AUTO 23014KT 14/07 A2979 RMK AO1 SLP075 T01440067





000
SAUS46 KSGX 272353
MTRCZZ
METAR KCZZ 272352Z AUTO 24017G22KT 17/07 A2979 RMK AO1 PK WND
23029/2326 SLP074 T01670067 10189 20167 55006





000
SAUS46 KSGX 272353
MTRCZZ
METAR KCZZ 272352Z AUTO 24017G22KT 17/07 A2979 RMK AO1 PK WND
23029/2326 SLP074 T01670067 10189 20167 55006





000
SAUS46 KSGX 272253
MTRCZZ
METAR KCZZ 272252Z AUTO 21015G23KT 18/06 A2978 RMK AO1 SLP070
T01780056





000
SAUS46 KSGX 272153
MTRCZZ
METAR KCZZ 272152Z AUTO 23018G25KT 18/05 A2979 RMK AO1 SLP072
T01830050





000
SAUS46 KSGX 272053
MTRCZZ
METAR KCZZ 272052Z AUTO 23014G20KT 19/06 A2981 RMK AO1 SLP077
T01890056 56014





000
SAUS46 KSGX 271953
MTRCZZ
METAR KCZZ 271952Z AUTO 24012KT 18/03 A2982 RMK AO1 SLP081 T01780033





000
SAUS46 KSGX 271853
MTRCZZ
METAR KCZZ 271852Z AUTO 25011G20KT 17/02 A2984 RMK AO1 SLP087
T01720017





000
SAUS46 KSGX 271853
MTRCZZ
METAR KCZZ 271852Z AUTO 25011G20KT 17/02 A2984 RMK AO1 SLP087
T01720017





000
SAUS46 KSGX 271753
MTRCZZ
METAR KCZZ 271752Z AUTO 22012G16KT 17/01 A2985 RMK AO1 SLP092
T01670011 10167 21006 58007





000
SAUS46 KSGX 271653
MTRCZZ
METAR KCZZ 271652Z AUTO 22006KT 14/01 A2986 RMK AO1 SLP095 T01390011





000
SAUS46 KSGX 271553
MTRCZZ
METAR KCZZ 271552Z AUTO 00000KT 11/04 A2988 RMK AO1 SLP101 T01110044





000
SAUS46 KSGX 271453
MTRCZZ
METAR KCZZ 271452Z AUTO 00000KT 06/02 A2988 RMK AO1 SLP104 T00610022
56001





000
SAUS46 KSGX 271353
MTRCZZ
METAR KCZZ 271352Z AUTO 05005KT 03/01 A2988 RMK AO1 SLP104 T00280006





000
SAUS46 KSGX 271253
MTRCZZ
METAR KCZZ 271252Z AUTO 05005KT 01/M01 A2988 RMK AO1 SLP104
T00111006





000
SAUS46 KSGX 271253
MTRCZZ
METAR KCZZ 271252Z AUTO 05005KT 01/M01 A2988 RMK AO1 SLP104
T00111006





000
SAUS46 KSGX 271153
MTRCZZ
METAR KCZZ 271152Z AUTO 05004KT 01/M01 A2988 RMK AO1 SLP103
T00111006 10050 20006 58013





000
SAUS46 KSGX 271153
MTRCZZ
METAR KCZZ 271152Z AUTO 05004KT 01/M01 A2988 RMK AO1 SLP103
T00111006 10050 20006 58013





000
SAUS46 KSGX 271053
MTRCZZ
METAR KCZZ 271052Z AUTO 04004KT 02/01 A2989 RMK AO1 SLP105 T00170006





000
SAUS46 KSGX 271053
MTRCZZ
METAR KCZZ 271052Z AUTO 04004KT 02/01 A2989 RMK AO1 SLP105 T00170006





000
SAUS46 KSGX 270953
MTRCZZ
METAR KCZZ 270952Z AUTO 06005KT 02/01 A2991 RMK AO1 SLP112 T00220011





000
SAUS46 KSGX 270853
MTRCZZ
METAR KCZZ 270852Z AUTO 06004KT 02/01 A2992 RMK AO1 SLP115 T00220011
58011





000
SAUS46 KSGX 270753
MTRCZZ
METAR KCZZ 270752Z AUTO 05004KT 04/02 A2994 RMK AO1 SLP121 T00390022
402001006





000
SAUS46 KSGX 270653
MTRCZZ
METAR KCZZ 270652Z AUTO 04004KT 04/02 A2994 RMK AO1 SLP124 T00440022





000
SAUS46 KSGX 270553
MTRCZZ
METAR KCZZ 270552Z AUTO 02003KT 05/03 A2995 RMK AO1 SLP128 T00500028
10183 20050 51009





000
SAUS46 KSGX 270453
MTRCZZ
METAR KCZZ 270452Z AUTO 00000KT 08/04 A2995 RMK AO1 SLP125 T00780044





000
SAUS46 KSGX 270353
MTRCZZ
METAR KCZZ 270352Z AUTO 20004KT 11/06 A2994 RMK AO1 SLP124 T01060056





000
SAUS46 KSGX 270253
MTRCZZ
METAR KCZZ 270252Z AUTO 29006KT 12/06 A2992 RMK AO1 SLP120 T01220061
53001





000
SAUS46 KSGX 270153
MTRCZZ
METAR KCZZ 270152Z AUTO 28006KT 15/06 A2992 RMK AO1 SLP120 T01500061





    US Dept of Commerce
    National Oceanic and Atmospheric Administration
    National Weather Service
    1325 East West Highway
    Silver Spring, MD 20910
    Page Author: NWS Internet Services Team
Disclaimer
Information Quality
Credits
Glossary
Privacy Policy
Freedom of Information Act (FOIA)
About Us
Career Opportunities